Crosshouse, United Kingdom
Current Conditions -  °F | °C
As of 1:20 PM on Friday 31 Oct 2014 (Local Time) from EGPK Reporting Station
Broken Clouds Broken Clouds  
Wind Chill: 63°   Ceiling: 1800
Heat Index: 63°   Visibility: 6mi
Dew Point: 57°   Wind: 18mph
Humidity: 82%   Direction: 170°S
Pressure: 29.71"   Gusts: NA
Location:  55.61°N, 4.55°W
Report Text: EGPK 311320Z 17016KT 9999 BKN018 17/14 Q1006
Loading
Personal Weather Stations






























Interactive Weather Map
Tropical Storm Tracking
New forecast layout! Learn more

10-Day Weather Forecast

Advertisements
Track Severe Weather on mobile